sensor_id;sensor_type;location;lat;lon;timestamp;P1;durP1;ratioP1;P2;durP2;ratioP2
13026;SDS011;6580;42.680;23.324;2022-11-15T00:00:48;69.77;;;51.93;;
13026;SDS011;6580;42.680;23.324;2022-11-15T00:03:16;81.23;;;51.37;;
13026;SDS011;6580;42.680;23.324;2022-11-15T00:05:45;75.57;;;51.13;;
13026;SDS011;6580;42.680;23.324;2022-11-15T00:08:13;68.77;;;50.13;;
13026;SDS011;6580;42.680;23.324;2022-11-15T00:10:40;67.20;;;50.37;;
13026;SDS011;6580;42.680;23.324;2022-11-15T00:13:08;72.50;;;50.97;;
13026;SDS011;6580;42.680;23.324;2022-11-15T00:15:37;73.83;;;49.40;;
13026;SDS011;6580;42.680;23.324;2022-11-15T00:18:06;68.77;;;48.23;;
13026;SDS011;6580;42.680;23.324;2022-11-15T00:20:38;62.40;;;45.23;;
13026;SDS011;6580;42.680;23.324;2022-11-15T00:23:08;64.57;;;47.07;;
13026;SDS011;6580;42.680;23.324;2022-11-15T00:25:35;73.13;;;51.30;;
13026;SDS011;6580;42.680;23.324;2022-11-15T00:28:02;76.67;;;53.67;;
13026;SDS011;6580;42.680;23.324;2022-11-15T00:30:29;75.27;;;54.80;;
13026;SDS011;6580;42.680;23.324;2022-11-15T00:33:00;79.20;;;53.73;;
13026;SDS011;6580;42.680;23.324;2022-11-15T00:35:30;89.17;;;56.67;;
13026;SDS011;6580;42.680;23.324;2022-11-15T00:37:59;82.17;;;57.93;;
13026;SDS011;6580;42.680;23.324;2022-11-15T00:40:28;95.63;;;61.87;;
13026;SDS011;6580;42.680;23.324;2022-11-15T00:42:55;82.27;;;53.73;;
13026;SDS011;6580;42.680;23.324;2022-11-15T00:45:22;75.03;;;52.43;;
13026;SDS011;6580;42.680;23.324;2022-11-15T00:47:50;77.50;;;52.60;;
13026;SDS011;6580;42.680;23.324;2022-11-15T00:50:19;71.30;;;51.23;;
13026;SDS011;6580;42.680;23.324;2022-11-15T00:52:48;81.53;;;53.83;;
13026;SDS011;6580;42.680;23.324;2022-11-15T00:55:16;66.10;;;47.73;;
13026;SDS011;6580;42.680;23.324;2022-11-15T00:57:46;73.27;;;50.57;;
13026;SDS011;6580;42.680;23.324;2022-11-15T01:00:14;79.93;;;51.13;;
13026;SDS011;6580;42.680;23.324;2022-11-15T01:02:41;79.53;;;52.47;;
13026;SDS011;6580;42.680;23.324;2022-11-15T01:05:08;70.77;;;51.53;;
13026;SDS011;6580;42.680;23.324;2022-11-15T01:07:36;77.13;;;52.57;;
13026;SDS011;6580;42.680;23.324;2022-11-15T01:10:04;77.60;;;50.90;;
13026;SDS011;6580;42.680;23.324;2022-11-15T01:12:31;70.47;;;51.20;;
13026;SDS011;6580;42.680;23.324;2022-11-15T01:15:00;70.43;;;50.10;;
13026;SDS011;6580;42.680;23.324;2022-11-15T01:17:27;71.90;;;49.10;;
13026;SDS011;6580;42.680;23.324;2022-11-15T01:19:55;77.37;;;53.90;;
13026;SDS011;6580;42.680;23.324;2022-11-15T01:22:22;74.33;;;50.43;;
13026;SDS011;6580;42.680;23.324;2022-11-15T01:24:49;64.70;;;46.87;;
13026;SDS011;6580;42.680;23.324;2022-11-15T01:27:17;60.80;;;46.60;;
13026;SDS011;6580;42.680;23.324;2022-11-15T01:29:44;64.83;;;46.87;;
13026;SDS011;6580;42.680;23.324;2022-11-15T01:32:12;66.40;;;49.13;;
13026;SDS011;6580;42.680;23.324;2022-11-15T01:34:43;66.73;;;46.97;;
13026;SDS011;6580;42.680;23.324;2022-11-15T01:37:11;67.67;;;47.43;;
13026;SDS011;6580;42.680;23.324;2022-11-15T01:39:41;71.67;;;47.70;;
13026;SDS011;6580;42.680;23.324;2022-11-15T01:42:09;63.80;;;46.27;;
13026;SDS011;6580;42.680;23.324;2022-11-15T01:44:40;64.27;;;46.67;;
13026;SDS011;6580;42.680;23.324;2022-11-15T01:47:12;65.80;;;48.30;;
13026;SDS011;6580;42.680;23.324;2022-11-15T01:49:45;78.30;;;54.57;;
13026;SDS011;6580;42.680;23.324;2022-11-15T01:52:17;82.90;;;55.10;;
13026;SDS011;6580;42.680;23.324;2022-11-15T01:54:47;77.53;;;52.03;;
13026;SDS011;6580;42.680;23.324;2022-11-15T01:57:19;79.17;;;54.40;;
13026;SDS011;6580;42.680;23.324;2022-11-15T01:59:46;83.47;;;56.00;;
13026;SDS011;6580;42.680;23.324;2022-11-15T02:02:14;88.37;;;55.63;;
13026;SDS011;6580;42.680;23.324;2022-11-15T02:04:45;90.13;;;57.17;;
13026;SDS011;6580;42.680;23.324;2022-11-15T02:07:14;83.80;;;56.27;;
13026;SDS011;6580;42.680;23.324;2022-11-15T02:09:43;83.90;;;53.03;;
13026;SDS011;6580;42.680;23.324;2022-11-15T02:12:13;84.67;;;55.33;;
13026;SDS011;6580;42.680;23.324;2022-11-15T02:14:44;81.80;;;56.23;;
13026;SDS011;6580;42.680;23.324;2022-11-15T02:17:19;84.03;;;54.17;;
13026;SDS011;6580;42.680;23.324;2022-11-15T02:20:10;76.60;;;51.97;;
13026;SDS011;6580;42.680;23.324;2022-11-15T02:23:07;89.13;;;55.60;;
13026;SDS011;6580;42.680;23.324;2022-11-15T02:25:48;80.90;;;54.73;;
13026;SDS011;6580;42.680;23.324;2022-11-15T02:28:35;80.23;;;53.83;;
13026;SDS011;6580;42.680;23.324;2022-11-15T02:31:15;74.30;;;51.10;;
13026;SDS011;6580;42.680;23.324;2022-11-15T02:33:54;75.13;;;50.80;;
13026;SDS011;6580;42.680;23.324;2022-11-15T02:36:35;75.20;;;50.57;;
13026;SDS011;6580;42.680;23.324;2022-11-15T02:39:09;70.63;;;47.97;;
13026;SDS011;6580;42.680;23.324;2022-11-15T02:41:46;78.80;;;48.27;;
13026;SDS011;6580;42.680;23.324;2022-11-15T02:44:19;66.70;;;46.43;;
13026;SDS011;6580;42.680;23.324;2022-11-15T02:46:51;69.90;;;46.43;;
13026;SDS011;6580;42.680;23.324;2022-11-15T02:49:42;74.87;;;47.13;;
13026;SDS011;6580;42.680;23.324;2022-11-15T02:52:14;75.03;;;49.70;;
13026;SDS011;6580;42.680;23.324;2022-11-15T02:54:42;67.20;;;46.33;;
13026;SDS011;6580;42.680;23.324;2022-11-15T02:57:19;71.50;;;46.13;;
13026;SDS011;6580;42.680;23.324;2022-11-15T03:00:06;72.97;;;46.30;;
13026;SDS011;6580;42.680;23.324;2022-11-15T03:02:39;69.33;;;44.20;;
13026;SDS011;6580;42.680;23.324;2022-11-15T03:05:14;63.20;;;43.37;;
13026;SDS011;6580;42.680;23.324;2022-11-15T03:07:51;64.20;;;41.93;;
13026;SDS011;6580;42.680;23.324;2022-11-15T03:10:25;67.80;;;42.77;;
13026;SDS011;6580;42.680;23.324;2022-11-15T03:12:59;67.47;;;45.37;;
13026;SDS011;6580;42.680;23.324;2022-11-15T03:15:35;67.57;;;44.73;;
13026;SDS011;6580;42.680;23.324;2022-11-15T03:18:14;65.40;;;44.13;;
13026;SDS011;6580;42.680;23.324;2022-11-15T03:20:45;67.77;;;44.50;;
13026;SDS011;6580;42.680;23.324;2022-11-15T03:23:14;68.00;;;44.30;;
13026;SDS011;6580;42.680;23.324;2022-11-15T03:25:41;61.13;;;45.17;;
13026;SDS011;6580;42.680;23.324;2022-11-15T03:28:16;67.80;;;44.37;;
13026;SDS011;6580;42.680;23.324;2022-11-15T03:30:47;64.87;;;43.77;;
13026;SDS011;6580;42.680;23.324;2022-11-15T03:33:18;71.07;;;46.17;;
13026;SDS011;6580;42.680;23.324;2022-11-15T03:35:47;63.40;;;44.37;;
13026;SDS011;6580;42.680;23.324;2022-11-15T03:38:15;66.50;;;43.57;;
13026;SDS011;6580;42.680;23.324;2022-11-15T03:40:50;64.90;;;43.47;;
13026;SDS011;6580;42.680;23.324;2022-11-15T03:43:24;62.40;;;42.10;;
13026;SDS011;6580;42.680;23.324;2022-11-15T03:45:56;68.23;;;44.63;;
13026;SDS011;6580;42.680;23.324;2022-11-15T03:48:30;64.90;;;42.50;;
13026;SDS011;6580;42.680;23.324;2022-11-15T03:51:01;78.43;;;44.93;;
13026;SDS011;6580;42.680;23.324;2022-11-15T03:53:29;75.23;;;47.17;;
13026;SDS011;6580;42.680;23.324;2022-11-15T03:55:56;78.50;;;47.10;;
13026;SDS011;6580;42.680;23.324;2022-11-15T03:58:24;75.67;;;45.53;;
13026;SDS011;6580;42.680;23.324;2022-11-15T04:00:50;83.53;;;47.37;;
13026;SDS011;6580;42.680;23.324;2022-11-15T04:03:18;81.93;;;45.73;;
13026;SDS011;6580;42.680;23.324;2022-11-15T04:05:46;72.83;;;43.70;;
13026;SDS011;6580;42.680;23.324;2022-11-15T04:08:13;79.63;;;46.77;;
13026;SDS011;6580;42.680;23.324;2022-11-15T04:10:40;71.53;;;44.40;;
13026;SDS011;6580;42.680;23.324;2022-11-15T04:13:07;73.50;;;45.27;;
13026;SDS011;6580;42.680;23.324;2022-11-15T04:15:36;70.53;;;44.13;;
13026;SDS011;6580;42.680;23.324;2022-11-15T04:18:04;75.67;;;46.23;;
13026;SDS011;6580;42.680;23.324;2022-11-15T04:20:34;75.77;;;43.37;;
13026;SDS011;6580;42.680;23.324;2022-11-15T04:23:20;82.33;;;46.90;;
13026;SDS011;6580;42.680;23.324;2022-11-15T04:26:06;95.00;;;48.07;;
13026;SDS011;6580;42.680;23.324;2022-11-15T04:28:38;93.17;;;49.03;;
13026;SDS011;6580;42.680;23.324;2022-11-15T04:31:26;79.13;;;46.73;;
13026;SDS011;6580;42.680;23.324;2022-11-15T04:33:54;88.20;;;47.57;;
13026;SDS011;6580;42.680;23.324;2022-11-15T04:36:21;89.73;;;48.70;;
13026;SDS011;6580;42.680;23.324;2022-11-15T04:39:08;98.13;;;49.20;;
13026;SDS011;6580;42.680;23.324;2022-11-15T04:41:35;90.57;;;47.10;;
13026;SDS011;6580;42.680;23.324;2022-11-15T04:44:03;94.07;;;46.13;;
13026;SDS011;6580;42.680;23.324;2022-11-15T04:46:31;90.70;;;45.93;;
13026;SDS011;6580;42.680;23.324;2022-11-15T04:49:06;94.90;;;46.63;;
13026;SDS011;6580;42.680;23.324;2022-11-15T04:51:34;101.57;;;49.83;;
13026;SDS011;6580;42.680;23.324;2022-11-15T04:54:02;93.87;;;49.43;;
13026;SDS011;6580;42.680;23.324;2022-11-15T04:56:33;90.50;;;47.57;;
13026;SDS011;6580;42.680;23.324;2022-11-15T04:59:02;92.40;;;50.57;;
13026;SDS011;6580;42.680;23.324;2022-11-15T05:01:29;100.70;;;53.03;;
13026;SDS011;6580;42.680;23.324;2022-11-15T05:03:56;99.77;;;52.53;;
13026;SDS011;6580;42.680;23.324;2022-11-15T05:06:40;105.43;;;53.93;;
13026;SDS011;6580;42.680;23.324;2022-11-15T05:09:10;97.80;;;53.30;;
13026;SDS011;6580;42.680;23.324;2022-11-15T05:11:40;111.67;;;52.30;;
13026;SDS011;6580;42.680;23.324;2022-11-15T05:14:08;105.33;;;52.30;;
13026;SDS011;6580;42.680;23.324;2022-11-15T05:16:37;107.93;;;54.60;;
13026;SDS011;6580;42.680;23.324;2022-11-15T05:19:08;100.57;;;55.73;;
13026;SDS011;6580;42.680;23.324;2022-11-15T05:21:36;107.13;;;55.00;;
13026;SDS011;6580;42.680;23.324;2022-11-15T05:24:04;104.67;;;54.57;;
13026;SDS011;6580;42.680;23.324;2022-11-15T05:26:31;102.40;;;53.40;;
13026;SDS011;6580;42.680;23.324;2022-11-15T05:29:02;91.93;;;53.40;;
13026;SDS011;6580;42.680;23.324;2022-11-15T05:31:28;86.67;;;52.30;;
13026;SDS011;6580;42.680;23.324;2022-11-15T05:33:58;62.07;;;37.77;;
13026;SDS011;6580;42.680;23.324;2022-11-15T05:36:32;39.47;;;28.77;;
13026;SDS011;6580;42.680;23.324;2022-11-15T05:39:02;39.03;;;25.30;;
13026;SDS011;6580;42.680;23.324;2022-11-15T05:41:30;35.80;;;24.90;;
13026;SDS011;6580;42.680;23.324;2022-11-15T05:43:59;43.10;;;24.43;;
13026;SDS011;6580;42.680;23.324;2022-11-15T05:46:29;37.93;;;25.13;;
13026;SDS011;6580;42.680;23.324;2022-11-15T05:48:56;36.87;;;24.10;;
13026;SDS011;6580;42.680;23.324;2022-11-15T05:51:24;40.23;;;25.67;;
13026;SDS011;6580;42.680;23.324;2022-11-15T05:53:55;37.57;;;23.87;;
13026;SDS011;6580;42.680;23.324;2022-11-15T05:56:23;34.43;;;23.57;;
13026;SDS011;6580;42.680;23.324;2022-11-15T05:58:51;35.93;;;22.40;;
13026;SDS011;6580;42.680;23.324;2022-11-15T06:01:23;44.70;;;26.20;;
13026;SDS011;6580;42.680;23.324;2022-11-15T06:03:51;45.67;;;26.97;;
13026;SDS011;6580;42.680;23.324;2022-11-15T06:06:18;44.17;;;25.97;;
13026;SDS011;6580;42.680;23.324;2022-11-15T06:08:47;56.37;;;27.93;;
13026;SDS011;6580;42.680;23.324;2022-11-15T06:11:14;41.57;;;24.73;;
13026;SDS011;6580;42.680;23.324;2022-11-15T06:13:41;38.83;;;24.03;;
13026;SDS011;6580;42.680;23.324;2022-11-15T06:16:17;45.03;;;23.20;;
13026;SDS011;6580;42.680;23.324;2022-11-15T06:18:45;57.97;;;29.57;;
13026;SDS011;6580;42.680;23.324;2022-11-15T06:21:11;49.70;;;28.63;;
13026;SDS011;6580;42.680;23.324;2022-11-15T06:23:38;59.10;;;30.20;;
13026;SDS011;6580;42.680;23.324;2022-11-15T06:26:05;56.30;;;30.20;;
13026;SDS011;6580;42.680;23.324;2022-11-15T06:28:32;58.73;;;30.17;;
13026;SDS011;6580;42.680;23.324;2022-11-15T06:31:02;58.17;;;33.30;;
13026;SDS011;6580;42.680;23.324;2022-11-15T06:33:29;67.20;;;33.80;;
13026;SDS011;6580;42.680;23.324;2022-11-15T06:35:57;63.10;;;35.13;;
13026;SDS011;6580;42.680;23.324;2022-11-15T06:38:27;68.23;;;35.67;;
13026;SDS011;6580;42.680;23.324;2022-11-15T06:40:54;72.97;;;36.57;;
13026;SDS011;6580;42.680;23.324;2022-11-15T06:43:21;73.03;;;38.20;;
13026;SDS011;6580;42.680;23.324;2022-11-15T06:45:49;75.67;;;40.37;;
13026;SDS011;6580;42.680;23.324;2022-11-15T06:48:16;76.73;;;38.40;;
13026;SDS011;6580;42.680;23.324;2022-11-15T06:50:42;68.40;;;37.77;;
13026;SDS011;6580;42.680;23.324;2022-11-15T06:53:10;70.87;;;37.00;;
13026;SDS011;6580;42.680;23.324;2022-11-15T06:55:38;67.83;;;34.30;;
13026;SDS011;6580;42.680;23.324;2022-11-15T06:58:05;52.90;;;29.17;;
13026;SDS011;6580;42.680;23.324;2022-11-15T07:00:32;54.67;;;29.13;;
13026;SDS011;6580;42.680;23.324;2022-11-15T07:02:59;63.17;;;31.33;;
13026;SDS011;6580;42.680;23.324;2022-11-15T07:05:28;47.87;;;29.77;;
13026;SDS011;6580;42.680;23.324;2022-11-15T07:07:55;48.87;;;28.90;;
13026;SDS011;6580;42.680;23.324;2022-11-15T07:10:26;48.43;;;29.80;;
13026;SDS011;6580;42.680;23.324;2022-11-15T07:12:53;52.40;;;31.70;;
13026;SDS011;6580;42.680;23.324;2022-11-15T07:15:21;69.63;;;35.90;;
13026;SDS011;6580;42.680;23.324;2022-11-15T07:17:52;58.13;;;33.87;;
13026;SDS011;6580;42.680;23.324;2022-11-15T07:20:23;55.30;;;33.17;;
13026;SDS011;6580;42.680;23.324;2022-11-15T07:22:58;48.67;;;29.77;;
13026;SDS011;6580;42.680;23.324;2022-11-15T07:25:28;38.13;;;25.43;;
13026;SDS011;6580;42.680;23.324;2022-11-15T07:27:55;39.07;;;25.33;;
13026;SDS011;6580;42.680;23.324;2022-11-15T07:30:22;39.70;;;25.33;;
13026;SDS011;6580;42.680;23.324;2022-11-15T07:32:51;36.23;;;25.33;;
13026;SDS011;6580;42.680;23.324;2022-11-15T07:35:19;39.43;;;26.47;;
13026;SDS011;6580;42.680;23.324;2022-11-15T07:37:52;45.07;;;27.37;;
13026;SDS011;6580;42.680;23.324;2022-11-15T07:40:19;43.47;;;29.07;;
13026;SDS011;6580;42.680;23.324;2022-11-15T07:42:47;43.70;;;27.37;;
13026;SDS011;6580;42.680;23.324;2022-11-15T07:45:24;41.87;;;28.10;;
13026;SDS011;6580;42.680;23.324;2022-11-15T07:47:55;43.73;;;28.03;;
13026;SDS011;6580;42.680;23.324;2022-11-15T07:50:22;45.33;;;29.13;;
13026;SDS011;6580;42.680;23.324;2022-11-15T07:52:53;46.60;;;28.47;;
13026;SDS011;6580;42.680;23.324;2022-11-15T07:55:20;44.70;;;28.30;;
13026;SDS011;6580;42.680;23.324;2022-11-15T07:57:49;40.07;;;27.40;;
13026;SDS011;6580;42.680;23.324;2022-11-15T08:00:16;52.20;;;32.53;;
13026;SDS011;6580;42.680;23.324;2022-11-15T08:02:46;56.73;;;34.40;;
13026;SDS011;6580;42.680;23.324;2022-11-15T08:05:49;54.00;;;32.40;;
13026;SDS011;6580;42.680;23.324;2022-11-15T08:08:17;58.03;;;34.23;;
13026;SDS011;6580;42.680;23.324;2022-11-15T08:10:50;52.53;;;35.60;;
13026;SDS011;6580;42.680;23.324;2022-11-15T08:13:24;57.57;;;35.03;;
13026;SDS011;6580;42.680;23.324;2022-11-15T08:15:59;55.60;;;35.93;;
13026;SDS011;6580;42.680;23.324;2022-11-15T08:18:38;65.80;;;37.13;;
13026;SDS011;6580;42.680;23.324;2022-11-15T08:21:21;62.53;;;38.10;;
13026;SDS011;6580;42.680;23.324;2022-11-15T08:23:51;50.30;;;33.60;;
13026;SDS011;6580;42.680;23.324;2022-11-15T08:26:17;54.87;;;33.90;;
13026;SDS011;6580;42.680;23.324;2022-11-15T08:28:46;46.73;;;31.03;;
13026;SDS011;6580;42.680;23.324;2022-11-15T08:31:13;58.57;;;33.10;;
13026;SDS011;6580;42.680;23.324;2022-11-15T08:33:41;59.47;;;35.20;;
13026;SDS011;6580;42.680;23.324;2022-11-15T08:36:10;56.70;;;33.80;;
13026;SDS011;6580;42.680;23.324;2022-11-15T08:38:39;58.27;;;37.67;;
13026;SDS011;6580;42.680;23.324;2022-11-15T08:41:06;53.93;;;35.97;;
13026;SDS011;6580;42.680;23.324;2022-11-15T08:43:33;55.77;;;36.93;;
13026;SDS011;6580;42.680;23.324;2022-11-15T08:46:01;56.07;;;34.30;;
13026;SDS011;6580;42.680;23.324;2022-11-15T08:48:28;58.13;;;35.97;;
13026;SDS011;6580;42.680;23.324;2022-11-15T08:50:56;60.20;;;36.43;;
13026;SDS011;6580;42.680;23.324;2022-11-15T08:53:23;59.00;;;37.37;;
13026;SDS011;6580;42.680;23.324;2022-11-15T08:55:56;61.10;;;39.30;;
13026;SDS011;6580;42.680;23.324;2022-11-15T08:58:26;70.30;;;42.67;;
13026;SDS011;6580;42.680;23.324;2022-11-15T09:00:56;70.37;;;42.00;;
13026;SDS011;6580;42.680;23.324;2022-11-15T09:03:24;52.23;;;37.07;;
13026;SDS011;6580;42.680;23.324;2022-11-15T09:05:53;62.17;;;38.17;;
13026;SDS011;6580;42.680;23.324;2022-11-15T09:08:21;60.10;;;40.17;;
13026;SDS011;6580;42.680;23.324;2022-11-15T09:10:47;62.40;;;39.77;;
13026;SDS011;6580;42.680;23.324;2022-11-15T09:13:14;57.13;;;37.87;;
13026;SDS011;6580;42.680;23.324;2022-11-15T09:15:41;59.53;;;37.37;;
13026;SDS011;6580;42.680;23.324;2022-11-15T09:18:08;59.87;;;36.97;;
13026;SDS011;6580;42.680;23.324;2022-11-15T09:20:37;56.93;;;36.63;;
13026;SDS011;6580;42.680;23.324;2022-11-15T09:23:04;63.67;;;39.33;;
13026;SDS011;6580;42.680;23.324;2022-11-15T09:25:32;60.07;;;38.07;;
13026;SDS011;6580;42.680;23.324;2022-11-15T09:27:59;63.80;;;40.03;;
13026;SDS011;6580;42.680;23.324;2022-11-15T09:30:25;62.83;;;39.37;;
13026;SDS011;6580;42.680;23.324;2022-11-15T09:32:54;59.00;;;38.17;;
13026;SDS011;6580;42.680;23.324;2022-11-15T09:35:21;70.43;;;41.20;;
13026;SDS011;6580;42.680;23.324;2022-11-15T09:37:49;65.57;;;42.40;;
13026;SDS011;6580;42.680;23.324;2022-11-15T09:40:17;63.33;;;40.77;;
13026;SDS011;6580;42.680;23.324;2022-11-15T09:45:54;63.67;;;40.37;;
13026;SDS011;6580;42.680;23.324;2022-11-15T09:48:35;66.63;;;40.93;;
13026;SDS011;6580;42.680;23.324;2022-11-15T09:51:21;66.87;;;40.97;;
13026;SDS011;6580;42.680;23.324;2022-11-15T09:53:59;67.70;;;42.83;;
13026;SDS011;6580;42.680;23.324;2022-11-15T09:56:31;69.00;;;40.87;;
13026;SDS011;6580;42.680;23.324;2022-11-15T09:59:04;64.07;;;41.57;;
13026;SDS011;6580;42.680;23.324;2022-11-15T10:01:55;61.90;;;40.73;;
13026;SDS011;6580;42.680;23.324;2022-11-15T10:04:31;70.93;;;44.23;;
13026;SDS011;6580;42.680;23.324;2022-11-15T10:07:01;62.03;;;39.97;;
13026;SDS011;6580;42.680;23.324;2022-11-15T10:09:37;57.53;;;39.90;;
13026;SDS011;6580;42.680;23.324;2022-11-15T10:12:13;60.10;;;40.20;;
13026;SDS011;6580;42.680;23.324;2022-11-15T10:14:45;59.50;;;40.50;;
13026;SDS011;6580;42.680;23.324;2022-11-15T10:20:10;58.07;;;39.33;;
13026;SDS011;6580;42.680;23.324;2022-11-15T10:22:44;57.40;;;38.93;;
13026;SDS011;6580;42.680;23.324;2022-11-15T10:25:17;85.63;;;60.47;;
13026;SDS011;6580;42.680;23.324;2022-11-15T10:27:51;62.53;;;45.67;;
13026;SDS011;6580;42.680;23.324;2022-11-15T10:30:22;57.90;;;40.23;;
13026;SDS011;6580;42.680;23.324;2022-11-15T10:32:56;58.00;;;40.57;;
13026;SDS011;6580;42.680;23.324;2022-11-15T10:35:24;53.27;;;39.20;;
13026;SDS011;6580;42.680;23.324;2022-11-15T10:37:58;55.47;;;40.30;;
13026;SDS011;6580;42.680;23.324;2022-11-15T10:40:42;54.37;;;40.87;;
13026;SDS011;6580;42.680;23.324;2022-11-15T10:43:14;56.67;;;38.93;;
13026;SDS011;6580;42.680;23.324;2022-11-15T10:45:43;53.53;;;40.37;;
13026;SDS011;6580;42.680;23.324;2022-11-15T10:48:21;50.43;;;39.90;;
13026;SDS011;6580;42.680;23.324;2022-11-15T10:50:52;58.00;;;44.03;;
13026;SDS011;6580;42.680;23.324;2022-11-15T10:53:23;55.33;;;41.97;;
13026;SDS011;6580;42.680;23.324;2022-11-15T10:55:56;54.83;;;41.43;;
13026;SDS011;6580;42.680;23.324;2022-11-15T10:58:39;56.43;;;43.87;;
13026;SDS011;6580;42.680;23.324;2022-11-15T11:01:09;62.47;;;43.37;;
13026;SDS011;6580;42.680;23.324;2022-11-15T11:03:39;62.57;;;45.57;;
13026;SDS011;6580;42.680;23.324;2022-11-15T11:06:08;67.00;;;46.27;;
13026;SDS011;6580;42.680;23.324;2022-11-15T11:08:39;63.57;;;45.70;;
13026;SDS011;6580;42.680;23.324;2022-11-15T11:11:12;71.63;;;47.13;;
13026;SDS011;6580;42.680;23.324;2022-11-15T11:13:39;60.87;;;46.00;;
13026;SDS011;6580;42.680;23.324;2022-11-15T11:16:17;68.07;;;48.43;;
13026;SDS011;6580;42.680;23.324;2022-11-15T11:18:55;63.37;;;47.97;;
13026;SDS011;6580;42.680;23.324;2022-11-15T11:21:33;82.40;;;58.13;;
13026;SDS011;6580;42.680;23.324;2022-11-15T11:24:09;63.00;;;46.33;;
13026;SDS011;6580;42.680;23.324;2022-11-15T11:26:49;70.80;;;46.20;;
13026;SDS011;6580;42.680;23.324;2022-11-15T11:29:32;63.83;;;46.67;;
13026;SDS011;6580;42.680;23.324;2022-11-15T11:32:11;65.00;;;45.83;;
13026;SDS011;6580;42.680;23.324;2022-11-15T11:34:55;56.97;;;44.37;;
13026;SDS011;6580;42.680;23.324;2022-11-15T11:37:30;57.10;;;43.30;;
13026;SDS011;6580;42.680;23.324;2022-11-15T11:40:08;55.83;;;42.37;;
13026;SDS011;6580;42.680;23.324;2022-11-15T11:42:47;56.43;;;41.03;;
13026;SDS011;6580;42.680;23.324;2022-11-15T11:48:20;53.37;;;39.93;;
13026;SDS011;6580;42.680;23.324;2022-11-15T11:51:02;52.10;;;40.57;;
13026;SDS011;6580;42.680;23.324;2022-11-15T11:53:37;52.07;;;41.17;;
13026;SDS011;6580;42.680;23.324;2022-11-15T11:56:15;53.63;;;40.93;;
13026;SDS011;6580;42.680;23.324;2022-11-15T11:58:49;50.93;;;41.03;;
13026;SDS011;6580;42.680;23.324;2022-11-15T12:01:22;53.63;;;39.77;;
13026;SDS011;6580;42.680;23.324;2022-11-15T12:03:52;49.73;;;39.07;;
13026;SDS011;6580;42.680;23.324;2022-11-15T12:06:26;48.40;;;40.23;;
13026;SDS011;6580;42.680;23.324;2022-11-15T12:08:58;50.70;;;37.90;;
13026;SDS011;6580;42.680;23.324;2022-11-15T12:11:35;50.53;;;39.07;;
13026;SDS011;6580;42.680;23.324;2022-11-15T12:14:26;48.50;;;39.90;;
13026;SDS011;6580;42.680;23.324;2022-11-15T12:16:58;50.80;;;39.17;;
13026;SDS011;6580;42.680;23.324;2022-11-15T12:19:25;52.33;;;38.77;;
13026;SDS011;6580;42.680;23.324;2022-11-15T12:21:56;51.40;;;39.23;;
13026;SDS011;6580;42.680;23.324;2022-11-15T12:24:28;49.77;;;39.77;;
13026;SDS011;6580;42.680;23.324;2022-11-15T12:27:00;49.30;;;38.37;;
13026;SDS011;6580;42.680;23.324;2022-11-15T12:29:33;51.43;;;38.90;;
13026;SDS011;6580;42.680;23.324;2022-11-15T12:32:04;56.23;;;40.53;;
13026;SDS011;6580;42.680;23.324;2022-11-15T12:34:41;48.27;;;38.47;;
13026;SDS011;6580;42.680;23.324;2022-11-15T12:40:20;48.13;;;38.87;;
13026;SDS011;6580;42.680;23.324;2022-11-15T12:43:04;53.30;;;39.57;;
13026;SDS011;6580;42.680;23.324;2022-11-15T12:45:55;51.83;;;39.90;;
13026;SDS011;6580;42.680;23.324;2022-11-15T12:54:54;48.50;;;37.27;;
13026;SDS011;6580;42.680;23.324;2022-11-15T12:57:33;46.20;;;37.63;;
13026;SDS011;6580;42.680;23.324;2022-11-15T13:06:37;49.97;;;39.33;;
13026;SDS011;6580;42.680;23.324;2022-11-15T13:12:11;48.73;;;38.93;;
13026;SDS011;6580;42.680;23.324;2022-11-15T13:15:45;50.50;;;39.63;;
13026;SDS011;6580;42.680;23.324;2022-11-15T13:18:37;49.83;;;39.00;;
13026;SDS011;6580;42.680;23.324;2022-11-15T13:21:18;50.40;;;37.17;;
13026;SDS011;6580;42.680;23.324;2022-11-15T13:24:09;53.70;;;38.03;;
13026;SDS011;6580;42.680;23.324;2022-11-15T13:26:38;51.77;;;38.33;;
13026;SDS011;6580;42.680;23.324;2022-11-15T13:29:12;56.70;;;39.67;;
13026;SDS011;6580;42.680;23.324;2022-11-15T13:31:42;57.73;;;40.97;;
13026;SDS011;6580;42.680;23.324;2022-11-15T13:34:26;53.73;;;40.63;;
13026;SDS011;6580;42.680;23.324;2022-11-15T13:36:57;52.00;;;39.77;;
13026;SDS011;6580;42.680;23.324;2022-11-15T13:39:27;51.20;;;40.07;;
13026;SDS011;6580;42.680;23.324;2022-11-15T13:41:55;54.80;;;39.73;;
13026;SDS011;6580;42.680;23.324;2022-11-15T13:44:24;60.00;;;40.50;;
13026;SDS011;6580;42.680;23.324;2022-11-15T13:47:06;54.87;;;40.97;;
13026;SDS011;6580;42.680;23.324;2022-11-15T13:49:41;52.17;;;40.47;;
13026;SDS011;6580;42.680;23.324;2022-11-15T13:52:10;60.10;;;42.27;;
13026;SDS011;6580;42.680;23.324;2022-11-15T13:54:42;58.00;;;41.90;;
13026;SDS011;6580;42.680;23.324;2022-11-15T13:57:12;57.80;;;41.40;;
13026;SDS011;6580;42.680;23.324;2022-11-15T13:59:45;59.67;;;41.93;;
13026;SDS011;6580;42.680;23.324;2022-11-15T14:02:14;58.77;;;40.60;;
13026;SDS011;6580;42.680;23.324;2022-11-15T14:04:47;56.47;;;42.53;;
13026;SDS011;6580;42.680;23.324;2022-11-15T14:07:17;59.97;;;41.67;;
13026;SDS011;6580;42.680;23.324;2022-11-15T14:12:50;63.90;;;42.60;;
13026;SDS011;6580;42.680;23.324;2022-11-15T14:15:25;59.27;;;41.60;;
13026;SDS011;6580;42.680;23.324;2022-11-15T14:17:54;56.07;;;41.57;;
13026;SDS011;6580;42.680;23.324;2022-11-15T14:20:30;55.73;;;39.43;;
13026;SDS011;6580;42.680;23.324;2022-11-15T14:23:02;60.93;;;42.03;;
13026;SDS011;6580;42.680;23.324;2022-11-15T14:25:30;56.10;;;40.43;;
13026;SDS011;6580;42.680;23.324;2022-11-15T14:28:08;58.47;;;42.40;;
13026;SDS011;6580;42.680;23.324;2022-11-15T14:30:41;56.77;;;41.07;;
13026;SDS011;6580;42.680;23.324;2022-11-15T14:33:18;58.43;;;42.10;;
13026;SDS011;6580;42.680;23.324;2022-11-15T14:35:50;59.50;;;43.70;;
13026;SDS011;6580;42.680;23.324;2022-11-15T14:38:20;60.33;;;42.23;;
13026;SDS011;6580;42.680;23.324;2022-11-15T14:40:47;59.43;;;42.43;;
13026;SDS011;6580;42.680;23.324;2022-11-15T14:43:14;60.47;;;44.27;;
13026;SDS011;6580;42.680;23.324;2022-11-15T14:45:51;65.70;;;44.67;;
13026;SDS011;6580;42.680;23.324;2022-11-15T14:48:18;67.73;;;51.20;;
13026;SDS011;6580;42.680;23.324;2022-11-15T14:50:45;61.30;;;44.83;;
13026;SDS011;6580;42.680;23.324;2022-11-15T14:53:16;66.03;;;47.77;;
13026;SDS011;6580;42.680;23.324;2022-11-15T14:55:45;65.87;;;46.00;;
13026;SDS011;6580;42.680;23.324;2022-11-15T14:58:12;66.57;;;47.20;;
13026;SDS011;6580;42.680;23.324;2022-11-15T15:00:40;66.97;;;47.93;;
13026;SDS011;6580;42.680;23.324;2022-11-15T15:03:07;66.17;;;45.30;;
13026;SDS011;6580;42.680;23.324;2022-11-15T15:05:38;59.37;;;44.00;;
13026;SDS011;6580;42.680;23.324;2022-11-15T15:08:06;65.43;;;45.73;;
13026;SDS011;6580;42.680;23.324;2022-11-15T15:10:36;63.60;;;44.57;;
13026;SDS011;6580;42.680;23.324;2022-11-15T15:13:04;61.50;;;44.00;;
13026;SDS011;6580;42.680;23.324;2022-11-15T15:15:35;84.73;;;53.83;;
13026;SDS011;6580;42.680;23.324;2022-11-15T15:18:03;66.33;;;48.17;;